Time,TemperatureF,DewpointF,PressureIn,WindDirection,WindDirectionDegrees,WindSpeedMPH,WindSpeedGustMPH,Humidity,HourlyPrecipIn,Conditions,Clouds,dailyrainin,SoftwareType,DateUTC
2013-11-18 00:23:00,53.0,39.0,-100.00,SW,225,4.0,12.0,58,0.00,,,-99.99,,2013-11-18 05:23:00,
2013-11-18 00:53:00,52.0,38.0,-100.00,WSW,240,7.0,20.0,58,0.00,,,-99.99,,2013-11-18 05:53:00,
2013-11-18 01:22:00,52.0,38.0,-100.00,WSW,250,5.0,14.0,59,0.00,,,-99.99,,2013-11-18 06:22:00,
2013-11-18 01:52:00,51.0,37.0,-100.00,West,270,4.0,19.0,59,0.00,,,-99.99,,2013-11-18 06:52:00,
2013-11-18 05:23:00,46.0,38.0,-100.00,West,270,5.0,12.0,73,0.00,,,-99.99,,2013-11-18 10:23:00,
2013-11-18 09:22:00,44.0,36.0,-100.00,West,275,3.0,11.0,74,0.00,,,-99.99,,2013-11-18 14:22:00,
2013-11-18 09:52:00,45.0,36.0,-100.00,West,260,6.0,13.0,70,-99.99,,,-99.99,,2013-11-18 14:52:00,
2013-11-18 10:22:00,46.0,36.0,-100.00,WSW,245,4.0,9.0,67,-99.99,,,-99.99,,2013-11-18 15:22:00,
2013-11-18 10:53:00,47.0,35.0,-100.00,West,265,7.0,19.0,63,-99.99,,,-99.99,,2013-11-18 15:53:00,
2013-11-18 11:23:00,49.0,35.0,-100.00,West,260,5.0,13.0,58,-99.99,,,-99.99,,2013-11-18 16:23:00,
2013-11-18 11:52:00,49.0,35.0,-100.00,West,260,6.0,18.0,57,-99.99,,,-99.99,,2013-11-18 16:52:00,
2013-11-18 12:22:00,50.0,35.0,-100.00,WSW,240,6.0,21.0,55,-99.99,,,-99.99,,2013-11-18 17:22:00,
2013-11-18 12:52:00,52.0,35.0,-100.00,WNW,285,6.0,20.0,51,-99.99,,,-99.99,,2013-11-18 17:52:00,
2013-11-18 13:23:00,51.0,32.0,-100.00,West,280,11.0,21.0,48,-99.99,,,-99.99,,2013-11-18 18:23:00,
2013-11-18 13:52:00,50.0,31.0,-100.00,WNW,300,10.0,24.0,47,-99.99,,,-99.99,,2013-11-18 18:52:00,
2013-11-18 14:22:00,51.0,29.0,-100.00,West,275,9.0,22.0,43,-99.99,,,-99.99,,2013-11-18 19:22:00,
2013-11-18 15:22:00,50.0,28.0,-100.00,WSW,255,7.0,21.0,43,-99.99,,,-99.99,,2013-11-18 20:22:00,
2013-11-18 16:22:00,47.0,30.0,-100.00,West,275,5.0,19.0,50,-99.99,,,-99.99,,2013-11-18 21:22:00,
2013-11-18 16:54:00,47.0,29.0,-100.00,WNW,300,6.0,17.0,50,-99.99,,,-99.99,,2013-11-18 21:54:00,
2013-11-18 17:22:00,45.0,29.0,-100.00,WSW,250,6.0,14.0,53,-99.99,,,-99.99,,2013-11-18 22:22:00,
2013-11-18 17:52:00,45.0,29.0,-100.00,WNW,300,4.0,18.0,53,-99.99,,,-99.99,,2013-11-18 22:52:00,
2013-11-18 18:22:00,44.0,30.0,-100.00,WNW,290,10.0,19.0,56,-99.99,,,-99.99,,2013-11-18 23:22:00,
2013-11-18 18:52:00,43.0,30.0,-100.00,WNW,290,4.0,11.0,58,-99.99,,,-99.99,,2013-11-18 23:52:00,
2013-11-18 19:21:00,43.0,30.0,-100.00,WNW,300,6.0,12.0,60,-99.99,,,-99.99,,2013-11-19 00:21:00,
2013-11-18 19:52:00,42.0,31.0,-100.00,SE,135,1.0,8.0,62,-99.99,,,-99.99,,2013-11-19 00:52:00,
2013-11-18 20:21:00,41.0,28.0,-100.00,WNW,290,5.0,17.0,59,-99.99,,,-99.99,,2013-11-19 01:21:00,
2013-11-18 20:52:00,40.0,28.0,-100.00,NW,310,9.0,21.0,60,-99.99,,,-99.99,,2013-11-19 01:52:00,
2013-11-18 21:22:00,39.0,28.0,-100.00,North,0,1.0,9.0,63,-99.99,,,-99.99,,2013-11-19 02:22:00,
2013-11-18 21:52:00,39.0,27.0,-100.00,NNW,330,4.0,12.0,61,-99.99,,,-99.99,,2013-11-19 02:52:00,
2013-11-18 22:21:00,39.0,26.0,-100.00,WNW,300,6.0,14.0,60,-99.99,,,-99.99,,2013-11-19 03:21:00,
2013-11-18 22:54:00,38.0,26.0,-100.00,ESE,120,4.0,16.0,60,-99.99,,,-99.99,,2013-11-19 03:54:00,
2013-11-18 23:23:00,38.0,26.0,-100.00,WNW,295,6.0,16.0,61,-99.99,,,-99.99,,2013-11-19 04:23:00,
2013-11-18 23:52:00,38.0,26.0,-100.00,NNW,340,3.0,10.0,62,-99.99,,,-99.99,,2013-11-19 04:52:00,